Time;durP1;ratioP1;P1;durP2;ratioP2;P2;SDS_P1;SDS_P2;PMS_P1;PMS_P2;Temp;Humidity;BMP_temperature;BMP_pressure;BME280_temperature;BME280_humidity;BME280_pressure;Samples;Min_cycle;Max_cycle;Signal;HPM_P1;HPM_P2
2022/08/05 00:02:05;;;;;;;8.27;6.60;;;18.80;99.90;;;;;;5111606;27;21371;-55
2022/08/05 00:04:32;;;;;;;7.88;6.18;;;18.90;99.90;;;;;;5105804;27;20432;-55
2022/08/05 00:06:59;;;;;;;7.87;5.30;;;18.90;99.90;;;;;;5110675;27;20669;-55
2022/08/05 00:09:26;;;;;;;8.45;6.30;;;18.70;99.90;;;;;;5122295;27;20786;-55
2022/08/05 00:11:54;;;;;;;7.53;5.37;;;18.80;99.90;;;;;;5116365;27;20193;-53
2022/08/05 00:14:21;;;;;;;8.60;5.03;;;18.80;99.90;;;;;;5096706;27;20224;-53
2022/08/05 00:16:48;;;;;;;8.13;4.77;;;18.70;99.90;;;;;;5110350;27;20192;-53
2022/08/05 00:19:14;;;;;;;7.17;4.57;;;18.60;99.90;;;;;;5109308;27;20224;-53
2022/08/05 00:21:41;;;;;;;7.67;4.37;;;18.60;99.90;;;;;;5099060;27;20204;-54
2022/08/05 00:24:08;;;;;;;5.83;4.00;;;18.60;99.90;;;;;;5105777;27;20197;-55
2022/08/05 00:26:35;;;;;;;5.53;3.83;;;18.50;99.90;;;;;;5104313;27;20475;-53
2022/08/05 00:29:03;;;;;;;5.70;3.60;;;18.50;99.90;;;;;;5111646;27;20213;-56
2022/08/05 00:31:30;;;;;;;5.23;4.13;;;18.40;99.90;;;;;;5095821;27;20204;-55
2022/08/05 00:33:57;;;;;;;5.40;3.30;;;18.40;99.90;;;;;;5110347;27;20225;-55
2022/08/05 00:36:24;;;;;;;3.73;3.20;;;18.30;99.90;;;;;;5104213;27;20201;-54
2022/08/05 00:38:51;;;;;;;5.20;3.80;;;18.30;99.90;;;;;;5123672;27;20418;-52
2022/08/05 00:41:27;;;;;;;6.93;3.40;;;18.60;99.90;;;;;;5124055;27;20657;-55
2022/08/05 00:43:55;;;;;;;5.17;3.50;;;18.30;99.90;;;;;;5125143;27;20211;-55
2022/08/05 00:46:23;;;;;;;3.93;2.80;;;18.20;99.90;;;;;;5113726;27;20207;-55
2022/08/05 00:48:50;;;;;;;3.67;2.80;;;18.20;99.90;;;;;;5111661;27;20658;-51
2022/08/05 00:51:18;;;;;;;3.73;2.50;;;18.10;99.90;;;;;;5111803;27;20646;-49
2022/08/05 00:53:45;;;;;;;4.78;3.17;;;18.10;99.90;;;;;;5116144;27;20433;-50
2022/08/05 00:56:14;;;;;;;4.20;2.47;;;18.30;99.90;;;;;;5122783;27;20257;-54
2022/08/05 00:58:41;;;;;;;3.35;2.65;;;18.20;99.90;;;;;;5112212;27;20426;-55
2022/08/05 01:01:10;;;;;;;5.03;3.10;;;18.10;99.90;;;;;;5107179;27;20430;-53
2022/08/05 01:03:39;;;;;;;4.20;2.70;;;18.20;99.90;;;;;;5098324;27;20418;-51
2022/08/05 01:06:06;;;;;;;3.13;2.23;;;18.40;99.90;;;;;;5107208;27;20204;-51
2022/08/05 01:08:33;;;;;;;4.90;2.80;;;18.20;99.90;;;;;;5099248;27;20417;-52
2022/08/05 01:11:04;;;;;;;3.07;2.03;;;18.20;99.90;;;;;;5120680;27;20212;-50
2022/08/05 01:13:41;;;;;;;4.93;2.13;;;18.10;99.90;;;;;;5100460;27;20224;-52
2022/08/05 01:16:14;;;;;;;3.70;2.45;;;18.00;99.90;;;;;;5104518;28;20423;-55
2022/08/05 01:18:46;;;;;;;2.20;2.00;;;18.20;99.90;;;;;;5093119;27;20240;-51
2022/08/05 01:21:26;;;;;;;4.35;2.55;;;18.10;99.90;;;;;;5108493;27;20915;-52
2022/08/05 01:24:04;;;;;;;2.57;2.00;;;18.40;99.90;;;;;;5106765;27;20421;-52
2022/08/05 01:26:40;;;;;;;5.23;2.30;;;18.50;99.90;;;;;;5105813;27;20829;-55
2022/08/05 01:29:17;;;;;;;2.95;2.10;;;18.30;99.90;;;;;;5113043;27;20404;-53
2022/08/05 01:31:47;;;;;;;5.70;2.10;;;18.20;99.90;;;;;;5106110;27;20436;-55
2022/08/05 01:34:22;;;;;;;3.70;1.95;;;18.20;99.90;;;;;;5102113;27;21299;-55
2022/08/05 01:36:54;;;;;;;4.70;2.17;;;18.30;99.90;;;;;;5108671;27;20197;-52
2022/08/05 01:39:22;;;;;;;2.75;1.73;;;18.20;99.90;;;;;;5103790;27;20417;-49
2022/08/05 01:41:51;;;;;;;3.90;1.70;;;18.30;99.90;;;;;;5124302;27;20246;-53
2022/08/05 01:44:20;;;;;;;4.72;2.20;;;18.20;99.90;;;;;;5118776;27;20414;-52
2022/08/05 01:46:49;;;;;;;4.17;1.80;;;18.50;99.90;;;;;;5114862;27;20270;-52
2022/08/05 01:49:20;;;;;;;4.30;2.00;;;18.30;99.90;;;;;;5103225;27;20425;-55
2022/08/05 01:51:48;;;;;;;4.05;1.73;;;18.20;99.90;;;;;;5112017;27;20422;-55
2022/08/05 01:54:17;;;;;;;2.75;1.85;;;18.50;99.90;;;;;;5097398;27;20442;-52
2022/08/05 01:56:45;;;;;;;3.47;2.00;;;18.60;99.90;;;;;;5114141;27;20423;-48
2022/08/05 01:59:16;;;;;;;2.00;1.80;;;18.50;99.90;;;;;;5106759;27;20985;-55
2022/08/05 02:01:48;;;;;;;3.42;1.90;;;18.50;99.90;;;;;;5100581;28;20439;-52
2022/08/05 02:04:16;;;;;;;2.80;1.90;;;18.30;99.90;;;;;;5087976;27;20447;-51
2022/08/05 02:06:43;;;;;;;2.30;1.70;;;18.30;99.90;;;;;;5115020;27;20211;-48
2022/08/05 02:09:10;;;;;;;3.70;1.98;;;18.20;99.90;;;;;;5100018;28;20489;-55
2022/08/05 02:11:44;;;;;;;4.03;1.83;;;18.30;99.90;;;;;;5099032;27;20227;-54
2022/08/05 02:14:14;;;;;;;3.33;2.00;;;18.20;99.90;;;;;;5100145;28;20238;-54
2022/08/05 02:16:47;;;;;;;4.77;1.50;;;18.10;99.90;;;;;;5104214;28;20196;-53
2022/08/05 02:19:18;;;;;;;2.07;1.70;;;18.00;99.90;;;;;;5087098;28;20220;-55
2022/08/05 02:21:52;;;;;;;1.70;1.60;;;18.00;99.90;;;;;;5108616;28;20284;-55
2022/08/05 02:24:22;;;;;;;3.07;1.90;;;18.00;99.90;;;;;;5119283;27;20200;-56
2022/08/05 02:26:54;;;;;;;1.90;1.70;;;17.90;99.90;;;;;;5104456;27;20206;-49
2022/08/05 02:29:23;;;;;;;3.13;1.60;;;17.90;99.90;;;;;;5115439;27;20283;-52
2022/08/05 02:31:56;;;;;;;2.13;1.43;;;17.90;99.90;;;;;;5116592;27;20195;-48
2022/08/05 02:34:24;;;;;;;4.73;1.83;;;17.90;99.90;;;;;;5111682;27;20832;-54
2022/08/05 02:36:54;;;;;;;3.73;1.80;;;17.90;99.90;;;;;;5110701;27;20746;-54
2022/08/05 02:39:22;;;;;;;4.43;2.30;;;17.80;99.90;;;;;;5110842;27;21060;-55
2022/08/05 02:41:52;;;;;;;4.03;2.20;;;17.80;99.90;;;;;;5104577;27;20197;-51
2022/08/05 02:44:21;;;;;;;2.10;1.90;;;17.80;99.90;;;;;;5103863;27;20189;-50
2022/08/05 02:46:49;;;;;;;4.93;2.00;;;17.80;99.90;;;;;;5108175;27;20204;-54
2022/08/05 02:49:17;;;;;;;2.57;2.17;;;17.80;99.90;;;;;;5103619;27;20991;-52
2022/08/05 02:51:44;;;;;;;5.03;1.90;;;17.80;99.90;;;;;;5105348;27;20681;-50
2022/08/05 02:54:12;;;;;;;8.00;2.93;;;17.70;99.90;;;;;;5104295;27;20217;-52
2022/08/05 02:56:41;;;;;;;7.27;3.13;;;17.70;99.90;;;;;;5112544;27;20568;-49
2022/08/05 02:59:10;;;;;;;9.57;3.10;;;17.70;99.90;;;;;;5109778;27;20226;-51
2022/08/05 03:01:39;;;;;;;4.30;3.00;;;17.60;99.90;;;;;;5109249;27;20197;-54
2022/08/05 03:04:10;;;;;;;5.87;2.67;;;17.50;99.90;;;;;;5102469;27;20276;-53
2022/08/05 03:06:40;;;;;;;4.37;2.60;;;17.40;99.90;;;;;;5099202;27;20276;-50
2022/08/05 03:09:07;;;;;;;4.27;2.30;;;17.40;99.90;;;;;;5121648;27;20220;-53
2022/08/05 03:11:34;;;;;;;5.13;2.90;;;17.30;99.90;;;;;;5110922;27;20880;-53
2022/08/05 03:14:01;;;;;;;2.90;2.60;;;17.10;99.90;;;;;;5102271;27;20217;-52
2022/08/05 03:16:28;;;;;;;3.67;2.73;;;17.00;99.90;;;;;;5105529;27;20200;-52
2022/08/05 03:18:55;;;;;;;7.40;2.67;;;17.10;99.90;;;;;;5107158;27;20224;-53
2022/08/05 03:21:22;;;;;;;3.77;2.73;;;17.10;99.90;;;;;;5097676;27;20201;-52
2022/08/05 03:23:51;;;;;;;3.80;3.27;;;17.00;99.90;;;;;;5115646;27;20561;-50
2022/08/05 03:26:17;;;;;;;6.50;3.17;;;17.00;99.90;;;;;;5103935;27;20602;-54
2022/08/05 03:28:44;;;;;;;4.27;2.53;;;17.00;99.90;;;;;;5114121;27;20220;-53
2022/08/05 03:31:12;;;;;;;5.50;3.07;;;17.00;99.90;;;;;;5104052;27;20204;-53
2022/08/05 03:33:39;;;;;;;5.33;3.23;;;16.90;99.90;;;;;;5106971;27;20660;-52
2022/08/05 03:36:06;;;;;;;5.20;2.93;;;17.00;99.90;;;;;;5105853;27;20264;-53
2022/08/05 03:38:33;;;;;;;6.40;3.53;;;17.00;99.90;;;;;;5105201;27;20221;-54
2022/08/05 03:41:01;;;;;;;3.03;2.57;;;16.90;99.90;;;;;;5116357;27;20201;-52
2022/08/05 03:43:28;;;;;;;4.40;2.83;;;16.90;99.90;;;;;;5104479;27;20205;-53
2022/08/05 03:45:55;;;;;;;5.43;3.13;;;16.80;99.90;;;;;;5103167;27;20197;-53
2022/08/05 03:48:22;;;;;;;4.10;2.97;;;16.70;99.90;;;;;;5103913;27;20210;-52
2022/08/05 03:50:55;;;;;;;4.60;2.93;;;16.70;99.90;;;;;;5102027;27;20193;-52
2022/08/05 03:53:31;;;;;;;5.10;3.07;;;16.70;99.90;;;;;;5100676;27;20203;-51
2022/08/05 03:56:04;;;;;;;3.97;2.97;;;16.70;99.90;;;;;;5111924;27;20227;-50
2022/08/05 03:58:35;;;;;;;5.37;3.40;;;16.70;99.90;;;;;;5116160;27;20274;-51
2022/08/05 04:01:04;;;;;;;4.03;2.70;;;16.70;99.90;;;;;;5109494;27;20204;-55
2022/08/05 04:03:36;;;;;;;3.37;2.63;;;16.70;99.90;;;;;;5124645;27;20227;-54
2022/08/05 04:06:04;;;;;;;4.50;3.10;;;16.70;99.90;;;;;;5121458;27;20200;-53
2022/08/05 04:08:32;;;;;;;4.10;3.20;;;16.80;99.90;;;;;;5095966;27;22126;-54
2022/08/05 04:11:02;;;;;;;3.87;3.20;;;16.80;99.90;;;;;;5110851;27;20200;-53
2022/08/05 04:13:29;;;;;;;3.20;2.90;;;16.80;99.90;;;;;;5111569;27;20185;-53
2022/08/05 04:15:56;;;;;;;4.77;3.60;;;16.80;99.90;;;;;;5103067;27;20243;-52
2022/08/05 04:18:23;;;;;;;4.90;3.40;;;16.70;99.90;;;;;;5103465;27;20221;-53
2022/08/05 04:20:54;;;;;;;4.00;2.57;;;16.70;99.90;;;;;;5106189;27;20197;-50
2022/08/05 04:23:23;;;;;;;4.67;3.07;;;16.70;99.90;;;;;;5088032;27;21207;-52
2022/08/05 04:25:50;;;;;;;4.70;3.57;;;16.70;99.90;;;;;;5120159;27;20276;-49
2022/08/05 04:28:18;;;;;;;5.97;3.53;;;16.70;99.90;;;;;;5109498;27;20270;-51
2022/08/05 04:30:46;;;;;;;6.73;3.43;;;16.60;99.90;;;;;;5114803;27;20272;-53
2022/08/05 04:33:13;;;;;;;5.50;3.37;;;16.60;99.90;;;;;;5108415;27;20261;-54
2022/08/05 04:35:40;;;;;;;4.33;3.77;;;16.60;99.90;;;;;;5125602;27;20217;-55
2022/08/05 04:38:07;;;;;;;4.77;3.80;;;16.60;99.90;;;;;;5113032;27;20220;-53
2022/08/05 04:40:34;;;;;;;6.80;3.73;;;16.50;99.90;;;;;;5102602;27;20198;-53
2022/08/05 04:43:01;;;;;;;4.67;3.73;;;16.60;99.90;;;;;;5111611;27;20731;-54
2022/08/05 04:45:30;;;;;;;6.10;3.90;;;16.50;99.90;;;;;;5103551;28;20189;-56
2022/08/05 04:48:04;;;;;;;4.30;3.90;;;16.60;99.90;;;;;;5110718;27;20253;-55
2022/08/05 04:50:31;;;;;;;7.03;3.50;;;16.50;99.90;;;;;;5121670;27;20317;-51
2022/08/05 04:53:01;;;;;;;6.97;4.60;;;16.50;99.90;;;;;;5120372;27;20284;-48
2022/08/05 04:55:28;;;;;;;4.60;4.10;;;16.50;99.90;;;;;;5094033;27;20209;-53
2022/08/05 04:57:55;;;;;;;7.03;4.27;;;16.50;99.90;;;;;;5114850;27;20217;-55
2022/08/05 05:00:22;;;;;;;4.17;3.77;;;16.50;99.90;;;;;;5104527;27;20190;-54
2022/08/05 05:02:51;;;;;;;7.10;3.50;;;16.50;99.90;;;;;;5100119;27;20209;-55
2022/08/05 05:05:18;;;;;;;5.00;4.47;;;16.50;99.90;;;;;;5120200;27;20185;-54
2022/08/05 05:07:45;;;;;;;4.37;3.60;;;16.50;99.90;;;;;;5125070;27;20231;-48
2022/08/05 05:10:12;;;;;;;6.40;4.10;;;16.60;99.90;;;;;;5092865;27;21464;-54
2022/08/05 05:12:39;;;;;;;6.70;4.20;;;16.60;99.90;;;;;;5109448;27;20186;-53
2022/08/05 05:15:06;;;;;;;5.00;4.43;;;16.60;99.90;;;;;;5097632;27;20201;-52
2022/08/05 05:17:37;;;;;;;5.60;4.20;;;16.60;99.90;;;;;;5102161;27;20228;-54
2022/08/05 05:20:06;;;;;;;5.50;4.27;;;16.50;99.90;;;;;;5107871;27;20216;-50
2022/08/05 05:22:33;;;;;;;5.77;4.67;;;16.50;99.90;;;;;;5122661;27;20207;-55
2022/08/05 05:25:00;;;;;;;6.40;4.50;;;16.60;99.90;;;;;;5108297;27;20204;-55
2022/08/05 05:27:27;;;;;;;4.97;4.57;;;16.60;99.90;;;;;;5098645;27;20783;-54
2022/08/05 05:29:53;;;;;;;5.03;4.07;;;16.60;99.90;;;;;;5113759;27;20198;-53
2022/08/05 05:32:20;;;;;;;6.57;4.13;;;16.60;99.90;;;;;;5098336;27;20216;-54
2022/08/05 05:34:47;;;;;;;6.83;4.60;;;16.50;99.90;;;;;;5101796;27;20219;-54
2022/08/05 05:37:15;;;;;;;4.50;4.10;;;16.60;99.90;;;;;;5100941;27;20177;-55
2022/08/05 05:39:42;;;;;;;10.03;4.73;;;16.60;99.90;;;;;;5099057;28;20573;-52
2022/08/05 05:42:09;;;;;;;6.93;5.20;;;16.70;99.90;;;;;;5094017;27;20257;-54
2022/08/05 05:44:36;;;;;;;7.10;4.87;;;16.70;99.90;;;;;;5110620;27;20272;-53
2022/08/05 05:47:03;;;;;;;6.97;4.43;;;16.70;99.90;;;;;;5106303;27;20201;-51
2022/08/05 05:49:30;;;;;;;5.90;4.43;;;16.60;99.90;;;;;;5110162;27;20236;-48
2022/08/05 05:51:57;;;;;;;4.77;4.37;;;16.60;99.90;;;;;;5105875;27;20193;-52
2022/08/05 05:54:25;;;;;;;5.40;4.43;;;16.60;99.90;;;;;;5097674;27;20288;-53
2022/08/05 05:56:52;;;;;;;7.67;4.50;;;16.70;99.90;;;;;;5112857;27;22262;-55
2022/08/05 05:59:18;;;;;;;5.13;4.80;;;16.70;99.90;;;;;;5098135;27;20227;-55
2022/08/05 06:01:45;;;;;;;5.30;4.80;;;16.70;99.90;;;;;;5104347;27;20666;-55
2022/08/05 06:04:13;;;;;;;5.20;4.80;;;16.70;99.90;;;;;;5115241;27;20296;-56
2022/08/05 06:06:41;;;;;;;7.60;4.73;;;16.70;99.90;;;;;;5103423;27;20209;-55
2022/08/05 06:09:08;;;;;;;8.33;4.73;;;16.70;99.90;;;;;;5101180;28;20581;-55
2022/08/05 06:11:36;;;;;;;5.43;4.87;;;16.70;99.90;;;;;;5106656;27;20197;-55
2022/08/05 06:14:03;;;;;;;6.40;4.53;;;16.60;99.90;;;;;;5101398;27;20201;-52
2022/08/05 06:16:30;;;;;;;6.57;4.90;;;16.70;99.90;;;;;;5109330;27;20992;-52
2022/08/05 06:18:56;;;;;;;6.90;4.60;;;16.70;99.90;;;;;;5112063;28;20221;-53
2022/08/05 06:21:23;;;;;;;5.27;4.80;;;16.70;99.90;;;;;;5103787;28;20204;-51
2022/08/05 06:23:50;;;;;;;5.13;4.27;;;16.80;99.90;;;;;;5110593;28;20207;-51
2022/08/05 06:26:17;;;;;;;4.70;4.17;;;16.80;99.90;;;;;;5103264;28;20200;-51
2022/08/05 06:28:45;;;;;;;4.87;4.40;;;16.90;99.90;;;;;;5103737;28;20217;-52
2022/08/05 06:31:12;;;;;;;6.70;4.83;;;16.80;99.90;;;;;;5102718;28;20896;-52
2022/08/05 06:33:38;;;;;;;6.50;4.30;;;16.90;99.90;;;;;;5106809;28;20204;-53
2022/08/05 06:36:05;;;;;;;5.50;4.07;;;17.00;99.90;;;;;;5106520;28;20243;-53
2022/08/05 06:38:32;;;;;;;5.00;4.17;;;17.00;99.90;;;;;;5108678;28;20220;-56
2022/08/05 06:40:59;;;;;;;6.63;4.80;;;17.00;99.90;;;;;;5105384;27;20193;-54
2022/08/05 06:43:26;;;;;;;6.77;4.77;;;17.00;99.90;;;;;;5091312;27;20209;-50
2022/08/05 06:45:54;;;;;;;5.37;4.70;;;17.10;99.90;;;;;;5115243;28;20257;-52
2022/08/05 06:48:21;;;;;;;5.13;4.33;;;17.20;99.90;;;;;;5107757;27;20204;-53
2022/08/05 06:50:48;;;;;;;4.70;4.10;;;17.30;99.90;;;;;;5105568;28;20280;-54
2022/08/05 06:53:15;;;;;;;4.80;3.77;;;17.30;99.90;;;;;;5105806;28;20196;-53
2022/08/05 06:55:42;;;;;;;6.70;3.73;;;17.40;99.90;;;;;;5123322;27;20580;-52
2022/08/05 06:58:09;;;;;;;3.70;3.40;;;17.40;99.90;;;;;;5105901;27;20212;-54
2022/08/05 07:00:36;;;;;;;4.57;3.70;;;17.40;99.90;;;;;;5101655;28;20212;-52
2022/08/05 07:03:04;;;;;;;7.03;3.67;;;17.50;99.90;;;;;;5107977;28;20227;-53
2022/08/05 07:05:31;;;;;;;5.63;3.60;;;17.60;99.90;;;;;;5102134;28;20911;-50
2022/08/05 07:07:58;;;;;;;6.57;3.63;;;17.70;99.90;;;;;;5108821;28;20220;-51
2022/08/05 07:10:25;;;;;;;4.27;3.33;;;17.70;99.90;;;;;;5121016;28;20278;-52
2022/08/05 07:18:24;;;;;;;4.23;3.30;;;18.10;99.90;;;;;;5108720;27;20685;-51
2022/08/05 07:20:52;;;;;;;7.37;3.40;;;18.10;99.90;;;;;;5107514;28;20205;-50
2022/08/05 07:23:19;;;;;;;6.77;3.47;;;18.10;99.90;;;;;;5100956;27;20196;-50
2022/08/05 07:25:46;;;;;;;5.27;2.70;;;18.10;99.90;;;;;;5127088;27;20207;-54
2022/08/05 07:28:13;;;;;;;3.17;2.97;;;18.20;99.90;;;;;;5108256;27;20213;-53
2022/08/05 07:30:40;;;;;;;4.47;2.90;;;18.10;99.90;;;;;;5102081;27;20211;-54
2022/08/05 07:33:08;;;;;;;6.07;3.20;;;18.10;99.90;;;;;;5109562;27;20201;-53
2022/08/05 07:35:37;;;;;;;3.73;2.87;;;18.10;99.90;;;;;;5106549;27;20216;-49
2022/08/05 07:38:03;;;;;;;4.30;2.77;;;18.10;99.90;;;;;;5102429;28;20225;-51
2022/08/05 07:40:30;;;;;;;4.23;2.93;;;18.00;99.90;;;;;;5119589;27;20193;-51
2022/08/05 07:42:57;;;;;;;2.93;2.67;;;18.00;99.90;;;;;;5125063;27;20204;-52
2022/08/05 07:45:24;;;;;;;3.07;2.33;;;18.00;99.90;;;;;;5102737;27;20193;-51
2022/08/05 07:47:51;;;;;;;2.97;2.77;;;18.00;99.90;;;;;;5117118;27;20287;-50
2022/08/05 07:50:19;;;;;;;4.20;3.30;;;18.00;99.90;;;;;;5122740;27;20290;-51
2022/08/05 07:52:47;;;;;;;5.50;2.93;;;18.00;99.90;;;;;;5126379;27;20280;-53
2022/08/05 07:55:14;;;;;;;3.17;2.87;;;18.00;99.90;;;;;;5109213;27;20213;-52
2022/08/05 07:57:41;;;;;;;4.87;3.00;;;17.90;99.90;;;;;;5117144;27;20209;-54
2022/08/05 08:00:09;;;;;;;3.30;2.50;;;17.90;99.90;;;;;;5101065;27;20664;-53
2022/08/05 08:02:39;;;;;;;2.97;2.67;;;17.90;99.90;;;;;;5117215;27;20289;-49
2022/08/05 08:05:06;;;;;;;4.43;2.73;;;18.00;99.90;;;;;;5102995;27;20201;-54
2022/08/05 08:07:33;;;;;;;5.10;3.27;;;18.00;99.90;;;;;;5105837;27;20220;-50
2022/08/05 08:10:02;;;;;;;4.83;2.60;;;17.90;99.90;;;;;;5103823;27;20824;-51
2022/08/05 08:12:29;;;;;;;6.43;2.57;;;17.90;99.90;;;;;;5104913;27;20425;-53
2022/08/05 08:14:56;;;;;;;4.77;2.90;;;17.90;99.90;;;;;;5101585;27;20266;-54
2022/08/05 08:17:23;;;;;;;2.80;2.23;;;17.90;99.90;;;;;;5107042;27;20211;-54
2022/08/05 08:19:50;;;;;;;3.37;3.10;;;17.90;99.90;;;;;;5107022;27;21089;-51
2022/08/05 08:22:17;;;;;;;5.27;2.60;;;17.90;99.90;;;;;;5102398;27;20925;-50
2022/08/05 08:24:44;;;;;;;5.87;2.47;;;17.90;99.90;;;;;;5105511;27;20215;-50
2022/08/05 08:27:12;;;;;;;5.27;2.43;;;17.80;99.90;;;;;;5103238;27;20196;-53
2022/08/05 08:29:39;;;;;;;4.50;2.70;;;17.80;99.90;;;;;;5116592;27;20686;-50
2022/08/05 08:32:06;;;;;;;4.20;2.43;;;17.80;99.90;;;;;;5092447;27;20240;-52
2022/08/05 08:34:33;;;;;;;5.00;2.20;;;17.80;99.90;;;;;;5110121;27;20250;-48
2022/08/05 08:37:00;;;;;;;2.90;2.07;;;17.70;99.90;;;;;;5103886;27;20213;-50
2022/08/05 08:39:27;;;;;;;3.20;2.00;;;17.80;99.90;;;;;;5103765;27;20205;-48
2022/08/05 08:41:55;;;;;;;5.20;2.60;;;17.70;99.90;;;;;;5103440;27;20554;-53
2022/08/05 08:44:28;;;;;;;6.73;2.60;;;17.70;99.90;;;;;;5121819;27;20209;-52
2022/08/05 08:46:56;;;;;;;3.57;2.40;;;17.70;99.90;;;;;;5109973;27;20204;-53
2022/08/05 08:49:24;;;;;;;3.67;2.23;;;17.70;99.90;;;;;;5110351;27;20205;-49
2022/08/05 08:52:05;;;;;;;4.23;2.30;;;17.60;99.90;;;;;;5105673;28;20225;-50
2022/08/05 08:54:33;;;;;;;2.53;2.33;;;17.60;99.90;;;;;;5104348;27;20198;-52
2022/08/05 08:57:01;;;;;;;2.40;2.20;;;17.60;99.90;;;;;;5107036;27;20208;-52
2022/08/05 08:59:29;;;;;;;2.97;2.10;;;17.60;99.90;;;;;;5102467;27;20217;-51
2022/08/05 09:01:56;;;;;;;3.30;2.00;;;17.60;99.90;;;;;;5101314;27;20197;-53
2022/08/05 09:04:23;;;;;;;4.53;1.83;;;17.50;99.90;;;;;;5105533;27;20263;-51
2022/08/05 09:06:50;;;;;;;3.37;1.90;;;17.50;99.90;;;;;;5110778;27;20678;-52
2022/08/05 09:09:16;;;;;;;3.13;1.60;;;17.60;99.90;;;;;;5101075;27;20216;-54
2022/08/05 09:11:44;;;;;;;3.03;2.07;;;17.50;99.90;;;;;;5105321;28;20201;-54
2022/08/05 09:14:12;;;;;;;2.67;2.07;;;17.60;99.90;;;;;;5108333;27;20209;-54
2022/08/05 09:16:40;;;;;;;2.53;2.33;;;17.50;99.90;;;;;;5124753;27;20307;-53
2022/08/05 09:19:08;;;;;;;3.43;1.70;;;17.60;99.90;;;;;;5103056;27;20574;-50
2022/08/05 09:21:34;;;;;;;4.13;1.87;;;17.60;99.90;;;;;;5107936;27;20299;-53
2022/08/05 09:24:07;;;;;;;4.57;2.10;;;17.60;99.90;;;;;;5102526;28;20595;-53
2022/08/05 09:26:35;;;;;;;1.80;1.70;;;17.70;99.90;;;;;;5119315;27;20193;-51
2022/08/05 09:29:05;;;;;;;2.57;1.50;;;17.70;99.90;;;;;;5107816;27;20232;-53
2022/08/05 09:31:33;;;;;;;3.10;1.63;;;17.70;99.90;;;;;;5103795;27;20288;-53
2022/08/05 09:34:03;;;;;;;3.50;2.07;;;17.70;99.90;;;;;;5097221;27;20201;-52
2022/08/05 09:36:43;;;;;;;3.43;1.83;;;17.70;99.90;;;;;;5103464;27;20217;-54
2022/08/05 09:39:12;;;;;;;3.27;2.10;;;17.60;99.90;;;;;;5100908;27;20217;-54
2022/08/05 09:41:56;;;;;;;2.17;1.80;;;17.60;99.90;;;;;;5104788;28;20197;-49
2022/08/05 09:44:34;;;;;;;3.17;1.63;;;17.60;99.90;;;;;;5109228;27;20188;-50
2022/08/05 09:47:09;;;;;;;2.37;1.90;;;17.70;99.90;;;;;;5122071;27;20242;-52
2022/08/05 09:49:40;;;;;;;2.47;1.90;;;17.70;99.90;;;;;;5104874;27;20281;-52
2022/08/05 09:52:27;;;;;;;2.63;2.00;;;17.60;99.90;;;;;;5109449;27;20197;-51
2022/08/05 09:54:56;;;;;;;2.37;2.00;;;17.70;99.90;;;;;;5103553;28;20751;-53
2022/08/05 09:57:36;;;;;;;2.97;2.00;;;17.70;99.90;;;;;;5108008;27;20217;-53
2022/08/05 10:00:11;;;;;;;3.50;2.13;;;17.80;99.90;;;;;;5105602;27;20549;-52
2022/08/05 10:02:40;;;;;;;4.73;2.67;;;17.80;99.90;;;;;;5104363;28;20204;-47
2022/08/05 10:05:11;;;;;;;2.17;1.97;;;17.80;99.90;;;;;;5091747;27;20208;-50
2022/08/05 10:07:47;;;;;;;3.77;2.00;;;17.90;99.90;;;;;;5112011;27;20244;-48
2022/08/05 10:10:14;;;;;;;2.83;2.03;;;17.80;99.90;;;;;;5099915;28;20196;-54
2022/08/05 10:12:43;;;;;;;1.90;1.63;;;17.80;99.90;;;;;;5104290;28;20201;-54
2022/08/05 10:15:22;;;;;;;1.70;1.50;;;17.70;99.90;;;;;;5095281;27;20205;-52
2022/08/05 10:18:08;;;;;;;1.87;1.47;;;17.60;99.90;;;;;;5104503;28;20232;-48
2022/08/05 10:20:40;;;;;;;3.53;1.70;;;17.60;99.90;;;;;;5105631;27;20208;-53
2022/08/05 10:23:07;;;;;;;2.47;1.67;;;17.60;99.90;;;;;;5113613;28;20696;-53
2022/08/05 10:25:34;;;;;;;5.50;2.00;;;17.60;99.90;;;;;;5103182;28;20272;-52
2022/08/05 10:28:02;;;;;;;3.23;1.90;;;17.60;99.90;;;;;;5110067;28;20634;-52
2022/08/05 10:30:29;;;;;;;3.13;2.03;;;17.50;99.90;;;;;;5105137;28;20200;-52
2022/08/05 10:32:58;;;;;;;3.67;2.17;;;17.50;99.90;;;;;;5122564;28;20206;-51
2022/08/05 10:35:25;;;;;;;3.50;1.93;;;17.50;99.90;;;;;;5121073;27;20275;-52
2022/08/05 10:37:54;;;;;;;4.40;2.10;;;17.40;99.90;;;;;;5102088;28;20848;-52
2022/08/05 10:40:29;;;;;;;7.60;2.03;;;17.40;99.90;;;;;;5106362;28;20197;-52
2022/08/05 10:43:07;;;;;;;3.67;1.90;;;17.40;99.90;;;;;;5102794;28;20208;-53
2022/08/05 10:45:35;;;;;;;2.50;2.30;;;17.40;99.90;;;;;;5099776;28;20233;-54
2022/08/05 10:48:34;;;;;;;2.53;1.93;;;17.40;99.90;;;;;;5101669;28;20213;-51
2022/08/05 10:51:04;;;;;;;4.10;1.63;;;17.40;99.90;;;;;;5112603;27;20691;-54
2022/08/05 10:53:39;;;;;;;2.23;1.67;;;17.40;99.90;;;;;;5120822;27;20584;-54
2022/08/05 10:56:08;;;;;;;4.53;1.63;;;17.30;99.90;;;;;;5108186;27;20204;-51
2022/08/05 10:58:36;;;;;;;1.20;1.20;;;17.30;99.90;;;;;;5118179;27;20217;-47
2022/08/05 11:01:05;;;;;;;1.57;0.93;;;17.20;99.90;;;;;;5111327;27;20669;-53
2022/08/05 11:03:33;;;;;;;4.27;1.67;;;17.10;99.90;;;;;;5126059;27;20283;-54
2022/08/05 11:06:11;;;;;;;3.50;1.57;;;16.90;99.90;;;;;;5119428;27;20208;-54
2022/08/05 11:09:19;;;;;;;2.50;1.30;;;16.90;99.90;;;;;;5114768;27;20689;-49
2022/08/05 11:11:48;;;;;;;2.60;1.47;;;17.00;99.90;;;;;;5124206;27;20208;-51
2022/08/05 11:14:23;;;;;;;2.00;1.23;;;16.90;99.90;;;;;;5122465;27;20222;-51
2022/08/05 11:17:25;;;;;;;2.30;1.33;;;16.80;99.90;;;;;;5118421;27;20235;-52
2022/08/05 11:19:54;;;;;;;4.10;1.20;;;16.80;99.90;;;;;;5127003;27;20200;-52
2022/08/05 11:22:46;;;;;;;1.20;1.10;;;16.80;99.90;;;;;;5108233;27;22627;-53
2022/08/05 11:25:30;;;;;;;1.53;1.23;;;16.70;99.90;;;;;;5112658;27;20189;-52
2022/08/05 11:28:36;;;;;;;1.57;1.30;;;16.60;99.90;;;;;;5112098;27;20255;-52
2022/08/05 11:31:31;;;;;;;1.67;1.27;;;16.70;99.90;;;;;;5110319;27;20193;-50
2022/08/05 11:34:01;;;;;;;1.20;1.10;;;16.70;99.90;;;;;;5105492;27;20197;-49
2022/08/05 11:36:45;;;;;;;1.17;1.17;;;16.70;99.90;;;;;;5104981;27;20217;-53
2022/08/05 11:39:13;;;;;;;1.70;1.10;;;16.70;99.90;;;;;;5098790;27;20671;-51
2022/08/05 11:41:49;;;;;;;1.53;1.43;;;16.70;99.90;;;;;;5110061;27;20620;-47
2022/08/05 11:44:19;;;;;;;2.63;1.20;;;16.60;99.90;;;;;;5102234;28;20185;-53
2022/08/05 11:46:48;;;;;;;3.67;1.50;;;16.60;99.90;;;;;;5106296;28;20204;-51
2022/08/05 11:49:17;;;;;;;1.87;1.43;;;16.60;99.90;;;;;;5102313;28;20213;-48
2022/08/05 11:51:45;;;;;;;4.20;1.60;;;16.70;99.90;;;;;;5106607;28;20208;-47
2022/08/05 11:54:12;;;;;;;1.77;1.37;;;16.70;99.90;;;;;;5091611;27;20228;-50
2022/08/05 11:56:45;;;;;;;1.40;1.30;;;16.60;99.90;;;;;;5110471;27;20211;-54
2022/08/05 11:59:14;;;;;;;2.23;1.90;;;16.60;99.90;;;;;;5108895;27;20224;-49
2022/08/05 12:01:56;;;;;;;3.30;2.13;;;16.60;99.90;;;;;;5105214;27;20255;-48
2022/08/05 12:04:24;;;;;;;1.80;1.23;;;16.60;99.90;;;;;;5103379;27;20272;-47
2022/08/05 12:06:51;;;;;;;3.73;1.70;;;16.70;99.90;;;;;;5106738;27;20194;-50
2022/08/05 12:09:23;;;;;;;2.50;1.40;;;16.70;99.90;;;;;;5095907;27;20212;-51
2022/08/05 12:11:52;;;;;;;3.20;1.20;;;16.70;99.90;;;;;;5115195;27;20284;-49
2022/08/05 12:14:19;;;;;;;3.20;1.43;;;16.60;99.90;;;;;;5102164;27;20192;-51
2022/08/05 12:16:47;;;;;;;1.00;0.90;;;16.70;99.90;;;;;;5106402;27;20224;-53
2022/08/05 12:19:15;;;;;;;4.00;1.50;;;16.70;99.90;;;;;;5101949;27;20245;-50
2022/08/05 12:21:45;;;;;;;2.87;1.30;;;16.80;99.90;;;;;;5106518;27;20204;-52
2022/08/05 12:24:16;;;;;;;2.13;1.30;;;16.90;99.90;;;;;;5106960;27;24938;-51
2022/08/05 12:26:46;;;;;;;2.87;1.60;;;17.00;99.90;;;;;;5109628;27;20272;-52
2022/08/05 12:29:15;;;;;;;2.80;1.57;;;16.90;99.90;;;;;;5108567;27;20292;-53
2022/08/05 12:31:46;;;;;;;2.67;1.10;;;17.10;99.90;;;;;;5106384;27;20674;-53
2022/08/05 12:34:14;;;;;;;3.93;1.77;;;17.20;99.90;;;;;;5101312;27;20197;-51
2022/08/05 12:36:42;;;;;;;1.47;1.20;;;17.30;99.90;;;;;;5105859;27;20220;-51
2022/08/05 12:39:09;;;;;;;2.37;1.70;;;17.50;99.90;;;;;;5102178;27;20221;-53
2022/08/05 12:41:38;;;;;;;2.13;1.57;;;17.60;99.90;;;;;;5102962;27;20212;-49
2022/08/05 12:44:08;;;;;;;3.90;1.30;;;17.70;99.90;;;;;;5109223;27;20292;-52
2022/08/05 12:46:37;;;;;;;3.60;1.33;;;17.70;99.90;;;;;;5105458;27;20197;-49
2022/08/05 12:49:07;;;;;;;1.73;1.10;;;17.70;99.90;;;;;;5103184;27;20244;-51
2022/08/05 12:51:44;;;;;;;1.00;1.00;;;17.80;99.90;;;;;;5105105;28;20722;-50
2022/08/05 12:54:35;;;;;;;3.33;1.37;;;17.80;99.90;;;;;;5118397;27;20211;-52
2022/08/05 12:57:03;;;;;;;1.70;1.50;;;17.90;99.90;;;;;;5100855;27;20225;-53
2022/08/05 12:59:32;;;;;;;2.37;1.47;;;18.00;99.90;;;;;;5104411;27;20277;-51
2022/08/05 13:02:04;;;;;;;2.17;1.67;;;18.30;99.90;;;;;;5103914;27;20197;-52
2022/08/05 13:04:33;;;;;;;2.20;2.00;;;18.60;99.90;;;;;;5104087;27;20185;-52
2022/08/05 13:07:02;;;;;;;5.07;3.60;;;18.80;99.90;;;;;;5103682;28;20250;-50